Time;durP1;ratioP1;P1;durP2;ratioP2;P2;SDS_P1;SDS_P2;PMS_P1;PMS_P2;Temp;Humidity;BMP_temperature;BMP_pressure;BME280_temperature;BME280_humidity;BME280_pressure;Samples;Min_cycle;Max_cycle;Signal;HPM_P1;HPM_P2
2022/08/26 00:02:06;;;;;;;0.00;0.00;;;;;;;;;;12281770;19;20006;-64
2022/08/26 00:06:07;;;;;;;0.00;0.00;;;;;;;;;;12283070;19;19991;-64
2022/08/26 00:10:08;;;;;;;0.00;0.00;;;;;;;;;;12289874;19;20021;-64
2022/08/26 00:14:09;;;;;;;0.00;0.00;;;;;;;;;;12286437;19;19983;-64
2022/08/26 00:18:09;;;;;;;0.00;0.00;;;;;;;;;;12291424;19;20007;-64
2022/08/26 00:22:09;;;;;;;0.00;0.00;;;;;;;;;;12286815;19;20485;-64
2022/08/26 00:26:11;;;;;;;0.00;0.00;;;;;;;;;;12288375;19;19990;-64
2022/08/26 00:30:14;;;;;;;0.00;0.00;;;;;;;;;;12294367;19;20470;-64
2022/08/26 00:34:15;;;;;;;0.00;0.00;;;;;;;;;;12291457;19;20013;-64
2022/08/26 00:38:16;;;;;;;0.00;0.00;;;;;;;;;;12286844;19;19983;-64
2022/08/26 00:42:16;;;;;;;0.00;0.00;;;;;;;;;;12281162;19;19997;-64
2022/08/26 00:46:27;;;;;;;0.00;0.00;;;;;;;;;;12289667;19;20332;-64
2022/08/26 00:50:30;;;;;;;0.00;0.00;;;;;;;;;;12286300;19;20446;-64
2022/08/26 00:54:34;;;;;;;0.00;0.00;;;;;;;;;;12279726;19;19987;-64
2022/08/26 00:58:35;;;;;;;0.00;0.00;;;;;;;;;;12283925;19;20204;-64
2022/08/26 01:02:36;;;;;;;0.00;0.00;;;;;;;;;;12285462;19;20002;-64
2022/08/26 01:06:37;;;;;;;0.00;0.00;;;;;;;;;;12285071;19;20063;-64
2022/08/26 01:10:37;;;;;;;0.00;0.00;;;;;;;;;;12284074;19;19986;-64
2022/08/26 01:14:39;;;;;;;0.00;0.00;;;;;;;;;;12289004;19;19999;-64
2022/08/26 01:18:41;;;;;;;0.00;0.00;;;;;;;;;;12284787;19;20010;-64
2022/08/26 01:22:42;;;;;;;;;;;;;;;;;;12276514;19;20016;-64
2022/08/26 01:26:43;;;;;;;0.00;0.00;;;;;;;;;;12282058;19;19937;-64
2022/08/26 01:30:44;;;;;;;0.00;0.00;;;;;;;;;;12278295;19;20006;-64
2022/08/26 01:34:45;;;;;;;0.00;0.00;;;;;;;;;;12276519;19;19997;-64
2022/08/26 01:38:45;;;;;;;0.00;0.00;;;;;;;;;;12282351;19;19995;-64
2022/08/26 01:42:47;;;;;;;0.00;0.00;;;;;;;;;;12278974;19;20013;-64
2022/08/26 01:46:49;;;;;;;0.00;0.00;;;;;;;;;;12278700;19;19991;-64
2022/08/26 01:50:50;;;;;;;0.00;0.00;;;;;;;;;;12280497;19;20329;-64
2022/08/26 01:54:51;;;;;;;0.00;0.00;;;;;;;;;;12280599;19;20022;-64
2022/08/26 01:58:57;;;;;;;0.00;0.00;;;;;;;;;;12280125;19;20039;-64
2022/08/26 02:03:15;;;;;;;0.00;0.00;;;;;;;;;;12278536;19;20006;-64
2022/08/26 02:07:17;;;;;;;0.00;0.00;;;;;;;;;;12284549;19;20003;-64
2022/08/26 02:11:18;;;;;;;;;;;;;;;;;;12284567;19;20003;-64
2022/08/26 02:15:18;;;;;;;0.00;0.00;;;;;;;;;;12278825;19;20169;-63
2022/08/26 02:19:23;;;;;;;0.00;0.00;;;;;;;;;;12276588;19;20025;-64
2022/08/26 02:23:24;;;;;;;0.00;0.00;;;;;;;;;;12282710;19;20479;-65
2022/08/26 02:27:26;;;;;;;0.00;0.00;;;;;;;;;;12278006;19;20017;-64
2022/08/26 02:31:27;;;;;;;0.00;0.00;;;;;;;;;;12275393;19;19990;-64
2022/08/26 02:35:28;;;;;;;0.00;0.00;;;;;;;;;;12274585;19;19991;-64
2022/08/26 02:39:29;;;;;;;0.00;0.00;;;;;;;;;;12281262;19;20003;-64
2022/08/26 02:43:29;;;;;;;0.00;0.00;;;;;;;;;;12278824;19;19998;-64
2022/08/26 02:47:31;;;;;;;0.00;0.00;;;;;;;;;;12277596;19;19999;-64
2022/08/26 02:51:31;;;;;;;0.00;0.00;;;;;;;;;;12274117;19;19998;-64
2022/08/26 02:55:32;;;;;;;0.00;0.00;;;;;;;;;;12280255;19;19999;-64
2022/08/26 02:59:34;;;;;;;0.00;0.00;;;;;;;;;;12275575;19;20006;-65
2022/08/26 03:03:35;;;;;;;0.00;0.00;;;;;;;;;;12273468;19;19993;-64
2022/08/26 03:07:35;;;;;;;0.00;0.00;;;;;;;;;;12277815;19;20002;-64
2022/08/26 03:11:36;;;;;;;0.00;0.00;;;;;;;;;;12276180;19;20019;-64
2022/08/26 03:15:36;;;;;;;0.00;0.00;;;;;;;;;;12274811;19;20191;-64
2022/08/26 03:19:37;;;;;;;0.00;0.00;;;;;;;;;;12277614;19;20067;-64
2022/08/26 03:23:38;;;;;;;0.00;0.00;;;;;;;;;;12276387;19;20019;-64
2022/08/26 03:27:38;;;;;;;0.00;0.00;;;;;;;;;;12280644;19;20002;-64
2022/08/26 03:31:39;;;;;;;0.00;0.00;;;;;;;;;;12280320;19;20013;-64
2022/08/26 03:35:40;;;;;;;0.00;0.00;;;;;;;;;;12288722;19;20446;-64
2022/08/26 03:39:40;;;;;;;0.00;0.00;;;;;;;;;;12287023;19;19987;-64
2022/08/26 03:43:41;;;;;;;0.00;0.00;;;;;;;;;;12295408;19;19999;-64
2022/08/26 03:47:41;;;;;;;0.00;0.00;;;;;;;;;;12292470;19;20020;-65
2022/08/26 03:51:41;;;;;;;0.00;0.00;;;;;;;;;;12289879;19;19998;-64
2022/08/26 03:55:42;;;;;;;0.00;0.00;;;;;;;;;;12287941;19;20123;-65
2022/08/26 03:59:42;;;;;;;0.00;0.00;;;;;;;;;;12284910;19;20452;-65
2022/08/26 04:03:57;;;;;;;0.00;0.00;;;;;;;;;;12296106;19;20219;-64
2022/08/26 04:07:58;;;;;;;0.00;0.00;;;;;;;;;;12288182;19;20010;-64
2022/08/26 04:11:59;;;;;;;0.00;0.00;;;;;;;;;;12285909;19;19994;-64
2022/08/26 04:15:59;;;;;;;0.00;0.00;;;;;;;;;;12283084;19;19990;-64
2022/08/26 04:19:59;;;;;;;0.00;0.00;;;;;;;;;;12282745;19;20003;-61
2022/08/26 04:24:00;;;;;;;0.00;0.00;;;;;;;;;;12278566;19;20015;-60
2022/08/26 04:28:01;;;;;;;0.00;0.00;;;;;;;;;;12278145;19;20223;-61
2022/08/26 04:32:01;;;;;;;0.00;0.00;;;;;;;;;;12275215;19;20006;-60
2022/08/26 04:36:02;;;;;;;0.00;0.00;;;;;;;;;;12274798;19;19987;-61
2022/08/26 04:40:04;;;;;;;0.00;0.00;;;;;;;;;;12280152;19;20009;-63
2022/08/26 04:44:05;;;;;;;0.00;0.00;;;;;;;;;;12278229;19;20302;-61
2022/08/26 04:48:05;;;;;;;0.00;0.00;;;;;;;;;;12275919;19;19995;-67
2022/08/26 04:52:06;;;;;;;0.00;0.00;;;;;;;;;;12273782;19;19997;-62
2022/08/26 04:56:07;;;;;;;0.00;0.00;;;;;;;;;;12273104;19;20421;-63
2022/08/26 05:00:10;;;;;;;0.00;0.00;;;;;;;;;;12278780;19;20869;-67
2022/08/26 05:04:11;;;;;;;0.00;0.00;;;;;;;;;;12274432;19;20073;-63
2022/08/26 05:08:12;;;;;;;0.00;0.00;;;;;;;;;;12274085;19;20066;-67
2022/08/26 05:12:12;;;;;;;0.00;0.00;;;;;;;;;;12269880;19;20119;-63
2022/08/26 05:16:14;;;;;;;0.00;0.00;;;;;;;;;;12277240;19;20131;-63
2022/08/26 05:20:14;;;;;;;0.00;0.00;;;;;;;;;;12273807;19;20047;-69
2022/08/26 05:24:15;;;;;;;0.00;0.00;;;;;;;;;;12280468;19;20066;-64
2022/08/26 05:28:17;;;;;;;0.00;0.00;;;;;;;;;;12274317;19;20802;-68
2022/08/26 05:32:17;;;;;;;0.00;0.00;;;;;;;;;;12273332;19;20002;-65
2022/08/26 05:36:19;;;;;;;0.00;0.00;;;;;;;;;;12277049;19;20008;-61
2022/08/26 05:40:19;;;;;;;0.00;0.00;;;;;;;;;;12275431;19;20493;-61
2022/08/26 05:44:19;;;;;;;0.00;0.00;;;;;;;;;;12274588;19;20013;-66
2022/08/26 05:48:20;;;;;;;0.00;0.00;;;;;;;;;;12273401;19;20026;-60
2022/08/26 05:52:20;;;;;;;0.00;0.00;;;;;;;;;;12270224;19;20005;-62
2022/08/26 05:56:23;;;;;;;0.00;0.00;;;;;;;;;;12270294;19;20452;-66
2022/08/26 06:00:24;;;;;;;0.00;0.00;;;;;;;;;;12269288;19;20250;-66
2022/08/26 06:04:24;;;;;;;0.00;0.00;;;;;;;;;;12273676;19;20293;-59
2022/08/26 06:08:24;;;;;;;0.00;0.00;;;;;;;;;;12271122;19;20025;-61
2022/08/26 06:12:24;;;;;;;0.00;0.00;;;;;;;;;;12269664;19;19983;-60
2022/08/26 06:16:25;;;;;;;0.00;0.00;;;;;;;;;;12274648;19;20046;-62
2022/08/26 06:20:25;;;;;;;0.00;0.00;;;;;;;;;;12273382;19;20058;-59
2022/08/26 06:29:05;;;;;;;0.00;0.00;;;;;;;;;;12263977;19;20129;-68
2022/08/26 06:33:06;;;;;;;0.00;0.00;;;;;;;;;;12265637;19;20279;-60
2022/08/26 06:37:07;;;;;;;0.00;0.00;;;;;;;;;;12264622;19;20005;-61
2022/08/26 06:41:10;;;;;;;0.00;0.00;;;;;;;;;;12261564;19;19987;-64
2022/08/26 06:45:11;;;;;;;0.00;0.00;;;;;;;;;;12262885;19;20154;-61
2022/08/26 06:49:12;;;;;;;0.00;0.00;;;;;;;;;;12267689;19;20134;-61
2022/08/26 06:53:12;;;;;;;0.00;0.00;;;;;;;;;;12262635;19;19995;-63
2022/08/26 06:57:12;;;;;;;0.00;0.00;;;;;;;;;;12267955;19;20010;-66
2022/08/26 07:01:17;;;;;;;0.00;0.00;;;;;;;;;;12265818;19;20004;-59
2022/08/26 07:05:18;;;;;;;0.00;0.00;;;;;;;;;;12268721;19;20010;-65
2022/08/26 07:09:19;;;;;;;0.00;0.00;;;;;;;;;;12268250;19;19982;-62
2022/08/26 07:13:22;;;;;;;0.00;0.00;;;;;;;;;;12282634;19;20638;-62
2022/08/26 07:17:22;;;;;;;0.00;0.00;;;;;;;;;;12279213;19;20004;-68
2022/08/26 07:21:23;;;;;;;0.00;0.00;;;;;;;;;;12275341;19;20066;-68
2022/08/26 07:25:23;;;;;;;0.00;0.00;;;;;;;;;;12284612;19;19995;-69
2022/08/26 07:29:24;;;;;;;0.00;0.00;;;;;;;;;;12282775;19;20085;-65
2022/08/26 07:33:24;;;;;;;0.00;0.00;;;;;;;;;;12279487;19;20127;-65
2022/08/26 07:37:25;;;;;;;0.00;0.00;;;;;;;;;;12279757;19;20002;-64
2022/08/26 07:41:25;;;;;;;0.00;0.00;;;;;;;;;;12281714;19;20026;-64
2022/08/26 07:45:25;;;;;;;0.00;0.00;;;;;;;;;;12280788;19;19999;-67
2022/08/26 07:49:26;;;;;;;0.00;0.00;;;;;;;;;;12280582;19;20002;-64
2022/08/26 07:53:26;;;;;;;0.00;0.00;;;;;;;;;;12275453;19;20002;-65
2022/08/26 07:57:27;;;;;;;0.00;0.00;;;;;;;;;;12292757;19;19998;-64
2022/08/26 08:01:30;;;;;;;;;;;;;;;;;;12280007;19;20005;-66
2022/08/26 08:05:31;;;;;;;0.03;0.03;;;;;;;;;;12284644;19;19975;-63
2022/08/26 08:09:31;;;;;;;0.00;0.00;;;;;;;;;;12278428;19;20007;-64
2022/08/26 08:13:32;;;;;;;0.00;0.00;;;;;;;;;;12289809;19;19998;-63
2022/08/26 08:17:33;;;;;;;0.00;0.00;;;;;;;;;;12290934;19;20013;-67
2022/08/26 08:21:33;;;;;;;0.00;0.00;;;;;;;;;;12279003;19;20160;-65
2022/08/26 08:25:34;;;;;;;0.00;0.00;;;;;;;;;;12285787;19;20023;-66
2022/08/26 08:29:36;;;;;;;0.00;0.00;;;;;;;;;;12295356;19;20805;-63
2022/08/26 08:33:36;;;;;;;0.00;0.00;;;;;;;;;;12289310;19;19990;-65
2022/08/26 08:37:36;;;;;;;0.00;0.00;;;;;;;;;;12284954;19;20029;-66
2022/08/26 08:41:49;;;;;;;0.00;0.00;;;;;;;;;;12279673;19;20009;-65
2022/08/26 08:45:56;;;;;;;0.00;0.00;;;;;;;;;;12288998;19;20019;-65
2022/08/26 08:50:10;;;;;;;0.00;0.00;;;;;;;;;;12280626;19;20007;-65
2022/08/26 08:54:11;;;;;;;0.00;0.00;;;;;;;;;;12286791;19;19999;-67
2022/08/26 08:58:23;;;;;;;0.00;0.00;;;;;;;;;;12282859;19;20010;-65
2022/08/26 09:02:27;;;;;;;0.00;0.00;;;;;;;;;;12274889;19;19994;-64
2022/08/26 09:06:27;;;;;;;0.00;0.00;;;;;;;;;;12285908;19;19995;-65
2022/08/26 09:10:35;;;;;;;0.00;0.00;;;;;;;;;;12279923;19;20023;-64
2022/08/26 09:14:36;;;;;;;0.00;0.00;;;;;;;;;;12283566;19;19998;-65
2022/08/26 09:18:55;;;;;;;0.00;0.00;;;;;;;;;;12281928;19;19987;-67
2022/08/26 09:22:56;;;;;;;0.00;0.00;;;;;;;;;;12283268;19;20021;-65
2022/08/26 09:26:57;;;;;;;0.00;0.00;;;;;;;;;;12283194;19;20007;-62
2022/08/26 09:30:58;;;;;;;0.00;0.00;;;;;;;;;;12275005;19;20006;-70
2022/08/26 09:35:00;;;;;;;0.00;0.00;;;;;;;;;;12277267;19;20333;-64
2022/08/26 09:39:01;;;;;;;;;;;;;;;;;;12275257;19;20022;-66
2022/08/26 09:43:18;;;;;;;0.00;0.00;;;;;;;;;;12272941;19;19938;-66
2022/08/26 09:47:33;;;;;;;0.00;0.00;;;;;;;;;;12283681;19;20238;-66
2022/08/26 09:51:33;;;;;;;0.00;0.00;;;;;;;;;;12279579;19;20050;-70
2022/08/26 09:55:34;;;;;;;0.00;0.00;;;;;;;;;;12279481;19;20066;-65
2022/08/26 09:59:35;;;;;;;0.00;0.00;;;;;;;;;;12276070;19;20003;-68
2022/08/26 10:03:37;;;;;;;0.00;0.00;;;;;;;;;;12279818;19;19991;-68
2022/08/26 10:07:38;;;;;;;;;;;;;;;;;;12276391;19;20054;-67
2022/08/26 10:11:41;;;;;;;0.00;0.00;;;;;;;;;;12277870;19;19915;-67
2022/08/26 10:15:45;;;;;;;0.00;0.00;;;;;;;;;;12280855;19;20035;-64
2022/08/26 10:19:49;;;;;;;0.00;0.00;;;;;;;;;;12275441;19;19999;-64
2022/08/26 10:23:52;;;;;;;0.00;0.00;;;;;;;;;;12275165;19;20010;-66
2022/08/26 10:28:05;;;;;;;0.00;0.00;;;;;;;;;;12276350;19;20003;-63
2022/08/26 10:32:11;;;;;;;0.00;0.00;;;;;;;;;;12276490;19;20117;-64
2022/08/26 10:36:48;;;;;;;0.00;0.00;;;;;;;;;;12271375;19;20116;-66
2022/08/26 10:40:41;;;;;;;0.00;0.00;;;;;;;;;;12271966;19;20003;-67
2022/08/26 10:44:43;;;;;;;0.00;0.00;;;;;;;;;;12272699;19;20002;-68
2022/08/26 10:48:55;;;;;;;0.00;0.00;;;;;;;;;;12268953;19;20003;-64
2022/08/26 10:52:55;;;;;;;;;;;;;;;;;;12267186;19;20289;-70
2022/08/26 10:57:01;;;;;;;0.00;0.00;;;;;;;;;;12270932;19;19915;-61
2022/08/26 11:01:44;;;;;;;0.00;0.00;;;;;;;;;;12273157;19;20006;-61
2022/08/26 11:05:44;;;;;;;0.00;0.00;;;;;;;;;;12272953;19;20015;-67
2022/08/26 11:09:46;;;;;;;0.00;0.00;;;;;;;;;;12268686;19;20006;-63
2022/08/26 11:13:56;;;;;;;0.00;0.00;;;;;;;;;;12273315;19;20006;-62
2022/08/26 11:17:58;;;;;;;0.00;0.00;;;;;;;;;;12267354;19;20084;-64
2022/08/26 11:22:24;;;;;;;0.00;0.00;;;;;;;;;;12268769;19;20011;-67
2022/08/26 11:26:33;;;;;;;0.00;0.00;;;;;;;;;;12270812;19;20007;-67
2022/08/26 11:30:36;;;;;;;0.00;0.00;;;;;;;;;;12269314;19;20159;-69
2022/08/26 11:34:50;;;;;;;0.00;0.00;;;;;;;;;;12267581;19;20006;-68
2022/08/26 11:38:51;;;;;;;0.00;0.00;;;;;;;;;;12269020;19;20079;-63
2022/08/26 11:42:56;;;;;;;0.00;0.00;;;;;;;;;;12263495;19;19995;-63
2022/08/26 11:46:58;;;;;;;0.00;0.00;;;;;;;;;;12265009;19;20657;-69
2022/08/26 11:50:59;;;;;;;;;;;;;;;;;;12272789;19;20166;-63
2022/08/26 11:55:07;;;;;;;0.00;0.00;;;;;;;;;;12266160;19;20043;-68
2022/08/26 11:59:10;;;;;;;0.00;0.00;;;;;;;;;;12280020;19;20007;-67
2022/08/26 12:03:14;;;;;;;0.00;0.00;;;;;;;;;;12273308;19;20479;-62
2022/08/26 12:07:16;;;;;;;0.00;0.00;;;;;;;;;;12281408;19;20014;-67
2022/08/26 12:11:21;;;;;;;0.00;0.00;;;;;;;;;;12280108;19;20013;-63
2022/08/26 12:15:22;;;;;;;0.00;0.00;;;;;;;;;;12276653;19;20083;-68
2022/08/26 12:19:31;;;;;;;0.00;0.00;;;;;;;;;;12278905;19;20131;-62
2022/08/26 12:23:34;;;;;;;0.00;0.00;;;;;;;;;;12275616;19;20007;-61
2022/08/26 12:27:38;;;;;;;0.00;0.00;;;;;;;;;;12280290;19;20007;-66
2022/08/26 12:31:41;;;;;;;0.00;0.00;;;;;;;;;;12275872;19;20007;-64
2022/08/26 12:35:41;;;;;;;0.00;0.00;;;;;;;;;;12278329;19;20005;-62
2022/08/26 12:39:43;;;;;;;0.00;0.00;;;;;;;;;;12278252;19;20002;-66
2022/08/26 12:43:44;;;;;;;0.00;0.00;;;;;;;;;;12278236;19;20003;-66
2022/08/26 12:47:45;;;;;;;0.00;0.00;;;;;;;;;;12277813;19;20002;-64
2022/08/26 12:51:48;;;;;;;0.00;0.00;;;;;;;;;;12274322;19;19998;-61
2022/08/26 12:55:50;;;;;;;0.00;0.00;;;;;;;;;;12273890;19;19993;-69
2022/08/26 12:59:51;;;;;;;0.00;0.00;;;;;;;;;;12276816;19;20223;-66
2022/08/26 13:03:51;;;;;;;0.00;0.00;;;;;;;;;;12278971;19;20238;-63
2022/08/26 13:08:10;;;;;;;0.00;0.00;;;;;;;;;;12271547;19;20398;-64
2022/08/26 13:12:11;;;;;;;0.00;0.00;;;;;;;;;;12280354;19;20013;-66
2022/08/26 13:16:12;;;;;;;0.00;0.00;;;;;;;;;;12274039;19;20011;-64
2022/08/26 13:20:12;;;;;;;0.00;0.00;;;;;;;;;;12271660;19;20270;-66
2022/08/26 13:24:14;;;;;;;0.00;0.00;;;;;;;;;;12272741;19;20058;-63
2022/08/26 13:28:15;;;;;;;0.00;0.00;;;;;;;;;;12272036;19;20394;-61
2022/08/26 13:32:16;;;;;;;0.00;0.00;;;;;;;;;;12278171;19;19998;-69
2022/08/26 13:36:17;;;;;;;0.00;0.00;;;;;;;;;;12274708;19;20003;-63
2022/08/26 13:40:17;;;;;;;0.00;0.00;;;;;;;;;;12275292;19;20013;-67
2022/08/26 13:44:18;;;;;;;0.00;0.00;;;;;;;;;;12270399;19;20071;-65
2022/08/26 13:48:18;;;;;;;0.00;0.00;;;;;;;;;;12273420;19;19987;-61
2022/08/26 13:52:18;;;;;;;0.00;0.00;;;;;;;;;;12272174;19;20621;-63
2022/08/26 13:56:20;;;;;;;0.00;0.00;;;;;;;;;;12269935;19;20215;-69
2022/08/26 14:00:20;;;;;;;0.00;0.00;;;;;;;;;;12271673;19;20111;-68
2022/08/26 14:04:20;;;;;;;0.00;0.00;;;;;;;;;;12268866;19;20166;-65
2022/08/26 14:08:21;;;;;;;0.00;0.00;;;;;;;;;;12271076;19;19995;-69
2022/08/26 14:12:21;;;;;;;0.00;0.00;;;;;;;;;;12271077;19;20003;-69
2022/08/26 14:16:26;;;;;;;0.00;0.00;;;;;;;;;;12274483;19;19998;-62
2022/08/26 14:20:27;;;;;;;0.00;0.00;;;;;;;;;;12265493;19;20018;-68
2022/08/26 14:24:28;;;;;;;0.00;0.00;;;;;;;;;;12274465;19;20104;-61
2022/08/26 14:28:28;;;;;;;0.00;0.00;;;;;;;;;;12276313;19;20133;-65
2022/08/26 14:32:30;;;;;;;0.00;0.00;;;;;;;;;;12270443;19;20014;-62
2022/08/26 14:36:31;;;;;;;0.00;0.00;;;;;;;;;;12272454;19;20062;-61
2022/08/26 14:40:32;;;;;;;0.00;0.00;;;;;;;;;;12272865;19;20007;-61
2022/08/26 14:44:33;;;;;;;0.00;0.00;;;;;;;;;;12272667;19;20038;-68
2022/08/26 14:48:33;;;;;;;0.00;0.00;;;;;;;;;;12273018;19;20006;-62
2022/08/26 14:54:10;;;;;;;0.00;0.00;;;;;;;;;;12269159;19;20083;-61
2022/08/26 14:56:55;;;;;;;0.00;0.00;;;;;;;;;;12268890;19;20485;-67
2022/08/26 15:00:56;;;;;;;0.00;0.00;;;;;;;;;;12272592;19;20007;-67
2022/08/26 15:04:56;;;;;;;0.00;0.00;;;;;;;;;;12265131;19;19991;-67
2022/08/26 15:08:56;;;;;;;0.00;0.00;;;;;;;;;;12263784;19;20007;-68
2022/08/26 15:12:57;;;;;;;0.00;0.00;;;;;;;;;;12272715;19;20163;-61
2022/08/26 15:16:58;;;;;;;0.00;0.00;;;;;;;;;;12269345;19;20018;-61
2022/08/26 15:20:58;;;;;;;0.00;0.00;;;;;;;;;;12267204;19;20003;-67
2022/08/26 15:24:58;;;;;;;0.00;0.00;;;;;;;;;;12272669;19;20239;-65
2022/08/26 15:28:59;;;;;;;0.00;0.00;;;;;;;;;;12272184;19;20007;-69
2022/08/26 15:32:59;;;;;;;0.00;0.00;;;;;;;;;;12280534;19;20011;-61
2022/08/26 15:37:00;;;;;;;0.00;0.00;;;;;;;;;;12284579;19;19994;-69
2022/08/26 15:41:01;;;;;;;0.00;0.00;;;;;;;;;;12280124;19;19999;-61
2022/08/26 15:45:02;;;;;;;0.00;0.00;;;;;;;;;;12282815;19;20010;-68
2022/08/26 15:49:02;;;;;;;0.00;0.00;;;;;;;;;;12281090;19;20015;-67
2022/08/26 15:53:03;;;;;;;0.00;0.00;;;;;;;;;;12280154;19;20412;-63
2022/08/26 15:57:04;;;;;;;0.00;0.00;;;;;;;;;;12282387;19;20550;-68
2022/08/26 16:01:04;;;;;;;0.00;0.00;;;;;;;;;;12280088;19;19995;-68
2022/08/26 16:05:05;;;;;;;0.00;0.00;;;;;;;;;;12282307;19;20014;-68
2022/08/26 16:09:05;;;;;;;0.00;0.00;;;;;;;;;;12282492;19;20434;-66
2022/08/26 16:13:06;;;;;;;0.00;0.00;;;;;;;;;;12281905;19;20006;-66
2022/08/26 16:17:07;;;;;;;0.00;0.00;;;;;;;;;;12276682;19;20214;-65
2022/08/26 16:21:07;;;;;;;0.00;0.00;;;;;;;;;;12272961;19;20017;-67
2022/08/26 16:25:08;;;;;;;0.00;0.00;;;;;;;;;;12283113;19;20082;-63
2022/08/26 16:29:11;;;;;;;0.00;0.00;;;;;;;;;;12281618;19;20025;-64
2022/08/26 16:33:12;;;;;;;0.00;0.00;;;;;;;;;;12277828;19;20003;-66
2022/08/26 16:37:12;;;;;;;0.00;0.00;;;;;;;;;;12291247;19;20017;-67
2022/08/26 16:41:12;;;;;;;0.00;0.00;;;;;;;;;;12282808;19;20003;-64
2022/08/26 16:45:13;;;;;;;0.00;0.00;;;;;;;;;;12275779;19;20119;-68
2022/08/26 16:49:13;;;;;;;0.00;0.00;;;;;;;;;;12279818;19;20025;-62
2022/08/26 16:53:14;;;;;;;0.00;0.00;;;;;;;;;;12276500;19;19991;-62
2022/08/26 16:57:14;;;;;;;0.00;0.00;;;;;;;;;;12277311;19;20006;-62
2022/08/26 17:01:15;;;;;;;0.00;0.00;;;;;;;;;;12277424;19;20058;-62
2022/08/26 17:05:16;;;;;;;0.00;0.00;;;;;;;;;;12281119;19;19995;-63
2022/08/26 17:09:16;;;;;;;0.00;0.00;;;;;;;;;;12281203;19;19994;-69
2022/08/26 17:13:17;;;;;;;0.00;0.00;;;;;;;;;;12282216;19;20606;-63
2022/08/26 17:17:18;;;;;;;0.00;0.00;;;;;;;;;;12279219;19;20030;-63
2022/08/26 17:21:18;;;;;;;0.00;0.00;;;;;;;;;;12272657;19;20003;-63
2022/08/26 17:25:23;;;;;;;0.00;0.00;;;;;;;;;;12280231;19;20013;-68
2022/08/26 17:29:24;;;;;;;0.00;0.00;;;;;;;;;;12276389;19;20013;-63
2022/08/26 17:33:24;;;;;;;0.00;0.00;;;;;;;;;;12280740;19;19994;-65
2022/08/26 17:37:25;;;;;;;0.00;0.00;;;;;;;;;;12280528;19;20032;-67
2022/08/26 17:41:25;;;;;;;0.00;0.00;;;;;;;;;;12277266;19;19998;-67
2022/08/26 17:45:26;;;;;;;0.00;0.00;;;;;;;;;;12280106;19;20107;-66
2022/08/26 17:49:27;;;;;;;0.00;0.00;;;;;;;;;;12278795;19;19990;-65
2022/08/26 17:53:28;;;;;;;0.00;0.00;;;;;;;;;;12275529;19;20014;-67
2022/08/26 17:57:29;;;;;;;0.00;0.00;;;;;;;;;;12280985;19;20062;-67
2022/08/26 18:01:29;;;;;;;0.00;0.00;;;;;;;;;;12278402;19;20078;-63
2022/08/26 18:05:30;;;;;;;0.00;0.00;;;;;;;;;;12278329;19;20058;-65
2022/08/26 18:09:31;;;;;;;0.00;0.00;;;;;;;;;;12278650;19;20617;-67
2022/08/26 18:13:31;;;;;;;0.00;0.00;;;;;;;;;;12283457;19;20004;-67
2022/08/26 18:17:32;;;;;;;0.00;0.00;;;;;;;;;;12274687;19;20016;-64
2022/08/26 18:21:35;;;;;;;0.00;0.00;;;;;;;;;;12277318;19;20116;-67
2022/08/26 18:25:42;;;;;;;0.00;0.00;;;;;;;;;;12276579;19;19999;-63
2022/08/26 18:29:47;;;;;;;0.00;0.00;;;;;;;;;;12270809;19;19995;-64
2022/08/26 18:33:47;;;;;;;0.00;0.00;;;;;;;;;;12277946;19;20250;-67
2022/08/26 18:37:48;;;;;;;0.00;0.00;;;;;;;;;;12280066;19;20143;-63
2022/08/26 18:41:51;;;;;;;0.00;0.00;;;;;;;;;;12274166;19;20002;-67
2022/08/26 18:46:00;;;;;;;0.00;0.00;;;;;;;;;;12284332;19;20433;-64
2022/08/26 18:50:00;;;;;;;0.00;0.00;;;;;;;;;;12276765;19;20006;-68
2022/08/26 18:54:01;;;;;;;0.00;0.00;;;;;;;;;;12269386;19;19997;-65
2022/08/26 18:58:01;;;;;;;0.00;0.00;;;;;;;;;;12273145;19;20006;-64
2022/08/26 19:02:02;;;;;;;0.00;0.00;;;;;;;;;;12270345;19;19983;-64
2022/08/26 19:06:02;;;;;;;0.00;0.00;;;;;;;;;;12275271;19;20135;-66
2022/08/26 19:10:04;;;;;;;0.00;0.00;;;;;;;;;;12283102;19;19983;-66
2022/08/26 19:14:06;;;;;;;0.00;0.00;;;;;;;;;;12287008;19;20006;-65
2022/08/26 19:18:07;;;;;;;0.00;0.00;;;;;;;;;;12286627;19;20007;-65
2022/08/26 19:22:07;;;;;;;0.00;0.00;;;;;;;;;;12280129;19;20252;-66
2022/08/26 19:26:08;;;;;;;0.00;0.00;;;;;;;;;;12280186;19;20050;-65
2022/08/26 19:30:09;;;;;;;0.00;0.00;;;;;;;;;;12283568;19;20010;-66
2022/08/26 19:34:09;;;;;;;0.00;0.00;;;;;;;;;;12283502;19;20003;-62
2022/08/26 19:38:10;;;;;;;0.00;0.00;;;;;;;;;;12285702;19;20005;-65
2022/08/26 19:42:10;;;;;;;0.00;0.00;;;;;;;;;;12276949;19;20010;-64
2022/08/26 19:46:12;;;;;;;0.00;0.00;;;;;;;;;;12280417;19;20578;-64
2022/08/26 19:50:13;;;;;;;0.00;0.00;;;;;;;;;;12280646;19;20014;-63
2022/08/26 19:54:14;;;;;;;0.00;0.00;;;;;;;;;;12285743;19;20003;-65
2022/08/26 19:58:14;;;;;;;0.00;0.00;;;;;;;;;;12282896;19;19999;-65
2022/08/26 20:02:15;;;;;;;0.00;0.00;;;;;;;;;;12281444;19;19999;-65
2022/08/26 20:06:15;;;;;;;0.00;0.00;;;;;;;;;;12283665;19;20007;-66
2022/08/26 20:10:19;;;;;;;0.00;0.00;;;;;;;;;;12280333;19;20003;-66
2022/08/26 20:14:20;;;;;;;0.00;0.00;;;;;;;;;;12280593;19;19991;-67
2022/08/26 20:22:39;;;;;;;0.00;0.00;;;;;;;;;;12276514;19;20022;-65
2022/08/26 20:26:41;;;;;;;0.00;0.00;;;;;;;;;;12287269;19;19995;-64
2022/08/26 20:30:41;;;;;;;0.00;0.00;;;;;;;;;;12288684;19;20709;-65
2022/08/26 20:34:41;;;;;;;0.00;0.00;;;;;;;;;;12285831;19;20140;-63
2022/08/26 20:38:42;;;;;;;0.00;0.00;;;;;;;;;;12282585;19;20040;-64
2022/08/26 20:42:42;;;;;;;0.00;0.00;;;;;;;;;;12277864;19;19999;-64
2022/08/26 20:46:42;;;;;;;0.00;0.00;;;;;;;;;;12274998;19;20092;-66
2022/08/26 20:50:43;;;;;;;0.00;0.00;;;;;;;;;;12282558;19;20517;-67
2022/08/26 20:54:43;;;;;;;0.00;0.00;;;;;;;;;;12274943;19;20026;-61
2022/08/26 20:58:43;;;;;;;0.00;0.00;;;;;;;;;;12285211;19;20294;-60
2022/08/26 21:02:44;;;;;;;0.00;0.00;;;;;;;;;;12277013;19;20481;-66
2022/08/26 21:06:45;;;;;;;0.00;0.00;;;;;;;;;;12280224;19;20066;-62
2022/08/26 21:10:47;;;;;;;0.00;0.00;;;;;;;;;;12281498;19;20047;-59
2022/08/26 21:14:47;;;;;;;0.00;0.00;;;;;;;;;;12280533;19;19998;-66
2022/08/26 21:18:48;;;;;;;0.00;0.00;;;;;;;;;;12281386;19;20005;-66
2022/08/26 21:22:49;;;;;;;0.00;0.00;;;;;;;;;;12274877;19;20133;-66
2022/08/26 21:26:49;;;;;;;0.00;0.00;;;;;;;;;;12277538;19;20246;-66
2022/08/26 21:30:50;;;;;;;0.00;0.00;;;;;;;;;;12276030;19;20119;-66
2022/08/26 21:34:53;;;;;;;0.00;0.00;;;;;;;;;;12278194;19;20002;-66
2022/08/26 21:38:54;;;;;;;0.00;0.00;;;;;;;;;;12274084;19;19989;-60
2022/08/26 21:42:55;;;;;;;0.00;0.00;;;;;;;;;;12276106;19;19991;-60
2022/08/26 21:46:55;;;;;;;0.00;0.00;;;;;;;;;;12276640;19;19998;-67
2022/08/26 21:50:56;;;;;;;0.00;0.00;;;;;;;;;;12279799;19;20006;-66
2022/08/26 21:55:00;;;;;;;0.00;0.00;;;;;;;;;;12270262;19;20110;-66
2022/08/26 21:59:00;;;;;;;0.00;0.00;;;;;;;;;;12276307;19;20089;-63
2022/08/26 22:03:01;;;;;;;0.00;0.00;;;;;;;;;;12274908;19;20010;-63
2022/08/26 22:07:02;;;;;;;0.00;0.00;;;;;;;;;;12277622;19;20002;-63
2022/08/26 22:11:02;;;;;;;0.00;0.00;;;;;;;;;;12272256;19;19991;-62
2022/08/26 22:15:03;;;;;;;0.00;0.00;;;;;;;;;;12276828;19;19995;-62
2022/08/26 22:19:04;;;;;;;0.00;0.00;;;;;;;;;;12269667;19;20006;-65
2022/08/26 22:23:05;;;;;;;0.00;0.00;;;;;;;;;;12269400;19;19998;-62
2022/08/26 22:27:05;;;;;;;0.00;0.00;;;;;;;;;;12272724;19;19994;-63
2022/08/26 22:31:07;;;;;;;0.00;0.00;;;;;;;;;;12272988;19;19994;-66
2022/08/26 22:35:08;;;;;;;0.00;0.00;;;;;;;;;;12273221;19;20481;-64
2022/08/26 22:39:08;;;;;;;0.00;0.00;;;;;;;;;;12270488;19;19997;-65
2022/08/26 22:43:08;;;;;;;0.00;0.00;;;;;;;;;;12268645;19;20002;-65
2022/08/26 22:47:09;;;;;;;0.00;0.00;;;;;;;;;;12271915;19;20410;-66
2022/08/26 22:51:09;;;;;;;0.00;0.00;;;;;;;;;;12270727;19;20115;-65
2022/08/26 22:55:10;;;;;;;0.00;0.00;;;;;;;;;;12269478;19;20191;-61
2022/08/26 22:59:10;;;;;;;0.00;0.00;;;;;;;;;;12277243;19;19999;-66
2022/08/26 23:03:11;;;;;;;0.00;0.00;;;;;;;;;;12272561;19;19983;-60
2022/08/26 23:07:11;;;;;;;0.00;0.00;;;;;;;;;;12281528;19;19999;-61
2022/08/26 23:11:12;;;;;;;0.00;0.00;;;;;;;;;;12279100;19;19995;-61
2022/08/26 23:15:13;;;;;;;0.00;0.00;;;;;;;;;;12280794;19;20006;-61
2022/08/26 23:19:15;;;;;;;0.00;0.00;;;;;;;;;;12276443;19;19995;-59
2022/08/26 23:23:16;;;;;;;0.00;0.00;;;;;;;;;;12275082;19;20042;-60
2022/08/26 23:27:16;;;;;;;0.00;0.00;;;;;;;;;;12282167;19;20027;-60
2022/08/26 23:31:16;;;;;;;0.00;0.00;;;;;;;;;;12276937;19;19987;-60
2022/08/26 23:35:20;;;;;;;0.00;0.00;;;;;;;;;;12279832;19;19998;-60
2022/08/26 23:39:20;;;;;;;0.00;0.00;;;;;;;;;;12276935;19;19979;-61
2022/08/26 23:43:21;;;;;;;0.00;0.00;;;;;;;;;;12276017;19;20226;-61
2022/08/26 23:47:22;;;;;;;0.00;0.00;;;;;;;;;;12276705;19;20204;-61
2022/08/26 23:55:41;;;;;;;0.00;0.00;;;;;;;;;;12288690;19;20030;-61
2022/08/26 23:59:42;;;;;;;0.00;0.00;;;;;;;;;;12292618;19;20007;-60
